sensor_id;sensor_type;location;lat;lon;timestamp;temperature;humidity
48728;DHT22;34527;45.618;5.130;2023-04-24T00:00:55;11.40;99.90
48728;DHT22;34527;45.618;5.130;2023-04-24T00:03:24;11.40;99.90
48728;DHT22;34527;45.618;5.130;2023-04-24T00:05:50;11.40;99.90
48728;DHT22;34527;45.618;5.130;2023-04-24T00:08:17;11.40;99.90
48728;DHT22;34527;45.618;5.130;2023-04-24T00:10:42;11.40;99.90
48728;DHT22;34527;45.618;5.130;2023-04-24T00:13:08;11.40;99.90
48728;DHT22;34527;45.618;5.130;2023-04-24T00:15:34;11.40;99.90
48728;DHT22;34527;45.618;5.130;2023-04-24T00:18:00;11.40;99.90
48728;DHT22;34527;45.618;5.130;2023-04-24T00:20:27;11.40;99.90
48728;DHT22;34527;45.618;5.130;2023-04-24T00:22:54;11.50;99.90
48728;DHT22;34527;45.618;5.130;2023-04-24T00:25:20;11.50;99.90
48728;DHT22;34527;45.618;5.130;2023-04-24T00:27:45;11.50;99.90
48728;DHT22;34527;45.618;5.130;2023-04-24T00:30:11;11.50;99.90
48728;DHT22;34527;45.618;5.130;2023-04-24T00:32:37;11.50;99.90
48728;DHT22;34527;45.618;5.130;2023-04-24T00:35:03;11.50;99.90
48728;DHT22;34527;45.618;5.130;2023-04-24T00:37:28;11.60;99.90
48728;DHT22;34527;45.618;5.130;2023-04-24T00:39:54;11.50;99.90
48728;DHT22;34527;45.618;5.130;2023-04-24T00:42:20;11.50;99.90
48728;DHT22;34527;45.618;5.130;2023-04-24T00:44:46;11.50;99.90
48728;DHT22;34527;45.618;5.130;2023-04-24T00:47:12;11.60;99.90
48728;DHT22;34527;45.618;5.130;2023-04-24T00:49:38;11.50;99.90
48728;DHT22;34527;45.618;5.130;2023-04-24T00:52:04;11.50;99.90
48728;DHT22;34527;45.618;5.130;2023-04-24T00:54:33;11.60;99.90
48728;DHT22;34527;45.618;5.130;2023-04-24T00:56:58;11.60;99.90
48728;DHT22;34527;45.618;5.130;2023-04-24T00:59:24;11.60;99.90
48728;DHT22;34527;45.618;5.130;2023-04-24T01:01:50;11.60;99.90
48728;DHT22;34527;45.618;5.130;2023-04-24T01:04:17;11.60;99.90
48728;DHT22;34527;45.618;5.130;2023-04-24T01:06:44;11.60;99.90
48728;DHT22;34527;45.618;5.130;2023-04-24T01:09:11;11.60;99.90
48728;DHT22;34527;45.618;5.130;2023-04-24T01:11:38;11.60;99.90
48728;DHT22;34527;45.618;5.130;2023-04-24T01:14:03;11.60;99.90
48728;DHT22;34527;45.618;5.130;2023-04-24T01:16:29;11.60;99.90
48728;DHT22;34527;45.618;5.130;2023-04-24T01:18:55;11.60;99.90
48728;DHT22;34527;45.618;5.130;2023-04-24T01:21:21;11.60;99.90
48728;DHT22;34527;45.618;5.130;2023-04-24T01:23:46;11.60;99.90
48728;DHT22;34527;45.618;5.130;2023-04-24T01:26:14;11.60;99.90
48728;DHT22;34527;45.618;5.130;2023-04-24T01:28:40;11.70;99.90
48728;DHT22;34527;45.618;5.130;2023-04-24T01:31:06;11.60;99.90
48728;DHT22;34527;45.618;5.130;2023-04-24T01:33:32;11.60;99.90
48728;DHT22;34527;45.618;5.130;2023-04-24T01:35:58;11.60;99.90
48728;DHT22;34527;45.618;5.130;2023-04-24T01:38:24;11.70;99.90
48728;DHT22;34527;45.618;5.130;2023-04-24T01:40:51;11.60;99.90
48728;DHT22;34527;45.618;5.130;2023-04-24T01:43:16;11.70;99.90
48728;DHT22;34527;45.618;5.130;2023-04-24T01:45:42;11.60;99.90
48728;DHT22;34527;45.618;5.130;2023-04-24T01:48:07;11.60;99.90
48728;DHT22;34527;45.618;5.130;2023-04-24T01:50:33;11.60;99.90
48728;DHT22;34527;45.618;5.130;2023-04-24T01:52:59;11.60;99.90
48728;DHT22;34527;45.618;5.130;2023-04-24T01:55:25;11.60;99.90
48728;DHT22;34527;45.618;5.130;2023-04-24T01:57:52;11.60;99.90
48728;DHT22;34527;45.618;5.130;2023-04-24T02:00:19;11.60;99.90
48728;DHT22;34527;45.618;5.130;2023-04-24T02:02:45;11.60;99.90
48728;DHT22;34527;45.618;5.130;2023-04-24T02:05:12;11.60;99.90
48728;DHT22;34527;45.618;5.130;2023-04-24T02:07:37;11.60;99.90
48728;DHT22;34527;45.618;5.130;2023-04-24T02:10:03;11.60;99.90
48728;DHT22;34527;45.618;5.130;2023-04-24T02:12:30;11.60;99.90
48728;DHT22;34527;45.618;5.130;2023-04-24T02:14:55;11.60;99.90
48728;DHT22;34527;45.618;5.130;2023-04-24T02:17:21;11.60;99.90
48728;DHT22;34527;45.618;5.130;2023-04-24T02:19:46;11.60;99.90
48728;DHT22;34527;45.618;5.130;2023-04-24T02:22:12;11.60;99.90
48728;DHT22;34527;45.618;5.130;2023-04-24T02:24:38;11.60;99.90
48728;DHT22;34527;45.618;5.130;2023-04-24T02:27:04;11.60;99.90
48728;DHT22;34527;45.618;5.130;2023-04-24T02:29:30;11.60;99.90
48728;DHT22;34527;45.618;5.130;2023-04-24T02:31:56;11.70;99.90
48728;DHT22;34527;45.618;5.130;2023-04-24T02:34:21;11.70;99.90
48728;DHT22;34527;45.618;5.130;2023-04-24T02:36:48;11.70;99.90
48728;DHT22;34527;45.618;5.130;2023-04-24T02:39:14;11.60;99.90
48728;DHT22;34527;45.618;5.130;2023-04-24T02:41:42;11.70;99.90
48728;DHT22;34527;45.618;5.130;2023-04-24T02:44:08;11.70;99.90
48728;DHT22;34527;45.618;5.130;2023-04-24T02:46:33;11.60;99.90
48728;DHT22;34527;45.618;5.130;2023-04-24T02:48:59;11.60;99.90
48728;DHT22;34527;45.618;5.130;2023-04-24T02:51:24;11.60;99.90
48728;DHT22;34527;45.618;5.130;2023-04-24T02:53:50;11.60;99.90
48728;DHT22;34527;45.618;5.130;2023-04-24T02:56:16;11.60;99.90
48728;DHT22;34527;45.618;5.130;2023-04-24T02:58:41;11.60;99.90
48728;DHT22;34527;45.618;5.130;2023-04-24T03:01:08;11.70;99.90
48728;DHT22;34527;45.618;5.130;2023-04-24T03:03:35;11.60;99.90
48728;DHT22;34527;45.618;5.130;2023-04-24T03:06:01;11.60;99.90
48728;DHT22;34527;45.618;5.130;2023-04-24T03:08:27;11.60;99.90
48728;DHT22;34527;45.618;5.130;2023-04-24T03:10:52;11.70;99.90
48728;DHT22;34527;45.618;5.130;2023-04-24T03:13:18;11.70;99.90
48728;DHT22;34527;45.618;5.130;2023-04-24T03:15:44;11.70;99.90
48728;DHT22;34527;45.618;5.130;2023-04-24T03:18:10;11.70;99.90
48728;DHT22;34527;45.618;5.130;2023-04-24T03:20:36;11.70;99.90
48728;DHT22;34527;45.618;5.130;2023-04-24T03:23:03;11.70;99.90
48728;DHT22;34527;45.618;5.130;2023-04-24T03:25:28;11.70;99.90
48728;DHT22;34527;45.618;5.130;2023-04-24T03:27:54;11.70;99.90
48728;DHT22;34527;45.618;5.130;2023-04-24T03:30:20;11.60;99.90
48728;DHT22;34527;45.618;5.130;2023-04-24T03:32:46;11.50;99.90
48728;DHT22;34527;45.618;5.130;2023-04-24T03:35:11;11.50;99.90
48728;DHT22;34527;45.618;5.130;2023-04-24T03:37:37;11.40;99.90
48728;DHT22;34527;45.618;5.130;2023-04-24T03:40:03;11.40;99.90
48728;DHT22;34527;45.618;5.130;2023-04-24T03:42:28;11.40;99.90
48728;DHT22;34527;45.618;5.130;2023-04-24T03:44:54;11.40;99.90
48728;DHT22;34527;45.618;5.130;2023-04-24T03:47:19;11.40;99.90
48728;DHT22;34527;45.618;5.130;2023-04-24T03:49:45;11.40;99.90
48728;DHT22;34527;45.618;5.130;2023-04-24T03:52:11;11.40;99.90
48728;DHT22;34527;45.618;5.130;2023-04-24T03:54:36;11.20;99.90
48728;DHT22;34527;45.618;5.130;2023-04-24T03:57:02;11.20;99.90
48728;DHT22;34527;45.618;5.130;2023-04-24T03:59:28;11.30;99.90
48728;DHT22;34527;45.618;5.130;2023-04-24T04:01:54;11.30;99.90
48728;DHT22;34527;45.618;5.130;2023-04-24T04:04:20;11.20;99.90
48728;DHT22;34527;45.618;5.130;2023-04-24T04:06:45;11.20;99.90
48728;DHT22;34527;45.618;5.130;2023-04-24T04:09:12;11.20;99.90
48728;DHT22;34527;45.618;5.130;2023-04-24T04:11:37;11.30;99.90
48728;DHT22;34527;45.618;5.130;2023-04-24T04:14:03;11.20;99.90
48728;DHT22;34527;45.618;5.130;2023-04-24T04:16:29;11.20;99.90
48728;DHT22;34527;45.618;5.130;2023-04-24T04:18:54;11.20;99.90
48728;DHT22;34527;45.618;5.130;2023-04-24T04:21:21;11.10;99.90
48728;DHT22;34527;45.618;5.130;2023-04-24T04:23:46;11.10;99.90
48728;DHT22;34527;45.618;5.130;2023-04-24T04:26:12;11.00;99.90
48728;DHT22;34527;45.618;5.130;2023-04-24T04:28:38;10.90;99.90
48728;DHT22;34527;45.618;5.130;2023-04-24T04:31:04;10.80;99.90
48728;DHT22;34527;45.618;5.130;2023-04-24T04:33:30;10.70;99.90
48728;DHT22;34527;45.618;5.130;2023-04-24T04:35:56;10.70;99.90
48728;DHT22;34527;45.618;5.130;2023-04-24T04:38:22;10.70;99.90
48728;DHT22;34527;45.618;5.130;2023-04-24T04:40:48;10.70;99.90
48728;DHT22;34527;45.618;5.130;2023-04-24T04:43:14;10.70;99.90
48728;DHT22;34527;45.618;5.130;2023-04-24T04:45:42;10.70;99.90
48728;DHT22;34527;45.618;5.130;2023-04-24T04:48:09;10.60;99.90
48728;DHT22;34527;45.618;5.130;2023-04-24T04:50:37;10.60;99.90
48728;DHT22;34527;45.618;5.130;2023-04-24T04:53:03;10.60;99.90
48728;DHT22;34527;45.618;5.130;2023-04-24T04:55:28;10.60;99.90
48728;DHT22;34527;45.618;5.130;2023-04-24T04:57:54;10.60;99.90
48728;DHT22;34527;45.618;5.130;2023-04-24T05:00:21;10.70;99.90
48728;DHT22;34527;45.618;5.130;2023-04-24T05:02:47;10.70;99.90
48728;DHT22;34527;45.618;5.130;2023-04-24T05:05:12;10.80;99.90
48728;DHT22;34527;45.618;5.130;2023-04-24T05:07:38;10.80;99.90
48728;DHT22;34527;45.618;5.130;2023-04-24T05:10:04;10.80;99.90
48728;DHT22;34527;45.618;5.130;2023-04-24T05:12:30;10.80;99.90
48728;DHT22;34527;45.618;5.130;2023-04-24T05:14:55;10.80;99.90
48728;DHT22;34527;45.618;5.130;2023-04-24T05:17:21;10.80;99.90
48728;DHT22;34527;45.618;5.130;2023-04-24T05:19:46;10.80;99.90
48728;DHT22;34527;45.618;5.130;2023-04-24T05:22:13;10.80;99.90
48728;DHT22;34527;45.618;5.130;2023-04-24T05:24:39;10.80;99.90
48728;DHT22;34527;45.618;5.130;2023-04-24T05:27:05;10.80;99.90
48728;DHT22;34527;45.618;5.130;2023-04-24T05:29:31;10.80;99.90
48728;DHT22;34527;45.618;5.130;2023-04-24T05:31:58;10.90;99.90
48728;DHT22;34527;45.618;5.130;2023-04-24T05:34:24;10.90;99.90
48728;DHT22;34527;45.618;5.130;2023-04-24T05:36:50;10.90;99.90
48728;DHT22;34527;45.618;5.130;2023-04-24T05:39:16;10.90;99.90
48728;DHT22;34527;45.618;5.130;2023-04-24T05:41:42;10.90;99.90
48728;DHT22;34527;45.618;5.130;2023-04-24T05:44:08;10.90;99.90
48728;DHT22;34527;45.618;5.130;2023-04-24T05:46:34;10.90;99.90
48728;DHT22;34527;45.618;5.130;2023-04-24T05:49:00;10.90;99.90
48728;DHT22;34527;45.618;5.130;2023-04-24T05:51:25;10.90;99.90
48728;DHT22;34527;45.618;5.130;2023-04-24T05:53:51;10.90;99.90
48728;DHT22;34527;45.618;5.130;2023-04-24T05:56:17;10.80;99.90
48728;DHT22;34527;45.618;5.130;2023-04-24T05:58:43;10.80;99.90
48728;DHT22;34527;45.618;5.130;2023-04-24T06:01:08;10.70;99.90
48728;DHT22;34527;45.618;5.130;2023-04-24T06:03:34;10.70;99.90
48728;DHT22;34527;45.618;5.130;2023-04-24T06:06:00;10.70;99.90
48728;DHT22;34527;45.618;5.130;2023-04-24T06:08:26;10.70;99.90
48728;DHT22;34527;45.618;5.130;2023-04-24T06:10:51;10.70;99.90
48728;DHT22;34527;45.618;5.130;2023-04-24T06:13:17;10.70;99.90
48728;DHT22;34527;45.618;5.130;2023-04-24T06:15:43;10.70;99.90
48728;DHT22;34527;45.618;5.130;2023-04-24T06:18:09;10.80;99.90
48728;DHT22;34527;45.618;5.130;2023-04-24T06:20:35;10.90;99.90
48728;DHT22;34527;45.618;5.130;2023-04-24T06:23:01;11.10;99.90
48728;DHT22;34527;45.618;5.130;2023-04-24T06:25:28;11.20;99.90
48728;DHT22;34527;45.618;5.130;2023-04-24T06:27:54;11.30;99.90
48728;DHT22;34527;45.618;5.130;2023-04-24T06:30:20;11.40;99.90
48728;DHT22;34527;45.618;5.130;2023-04-24T06:32:46;11.50;99.90
48728;DHT22;34527;45.618;5.130;2023-04-24T06:35:11;11.50;99.90
48728;DHT22;34527;45.618;5.130;2023-04-24T06:37:39;11.50;99.90
48728;DHT22;34527;45.618;5.130;2023-04-24T06:40:05;11.50;99.90
48728;DHT22;34527;45.618;5.130;2023-04-24T06:42:31;11.50;99.90
48728;DHT22;34527;45.618;5.130;2023-04-24T06:44:57;11.60;99.90
48728;DHT22;34527;45.618;5.130;2023-04-24T06:47:22;11.70;99.90
48728;DHT22;34527;45.618;5.130;2023-04-24T06:49:48;11.70;99.90
48728;DHT22;34527;45.618;5.130;2023-04-24T06:52:16;11.70;99.90
48728;DHT22;34527;45.618;5.130;2023-04-24T06:54:42;11.60;99.90
48728;DHT22;34527;45.618;5.130;2023-04-24T06:57:08;11.60;99.90
48728;DHT22;34527;45.618;5.130;2023-04-24T06:59:33;11.60;99.90
48728;DHT22;34527;45.618;5.130;2023-04-24T07:01:59;11.60;99.90
48728;DHT22;34527;45.618;5.130;2023-04-24T07:04:25;11.60;99.90
48728;DHT22;34527;45.618;5.130;2023-04-24T07:06:51;11.60;99.90
48728;DHT22;34527;45.618;5.130;2023-04-24T07:09:19;11.50;99.90
48728;DHT22;34527;45.618;5.130;2023-04-24T07:11:45;11.50;99.90
48728;DHT22;34527;45.618;5.130;2023-04-24T07:14:11;11.50;99.90
48728;DHT22;34527;45.618;5.130;2023-04-24T07:16:37;11.50;99.90
48728;DHT22;34527;45.618;5.130;2023-04-24T07:19:03;11.60;99.90
48728;DHT22;34527;45.618;5.130;2023-04-24T07:21:29;11.70;99.90
48728;DHT22;34527;45.618;5.130;2023-04-24T07:23:56;11.70;99.90
48728;DHT22;34527;45.618;5.130;2023-04-24T07:26:22;11.70;99.90
48728;DHT22;34527;45.618;5.130;2023-04-24T07:28:47;11.90;99.90
48728;DHT22;34527;45.618;5.130;2023-04-24T07:31:13;11.80;99.90
48728;DHT22;34527;45.618;5.130;2023-04-24T07:33:38;11.90;99.90
48728;DHT22;34527;45.618;5.130;2023-04-24T07:36:04;12.00;99.90
48728;DHT22;34527;45.618;5.130;2023-04-24T07:38:30;12.00;99.90
48728;DHT22;34527;45.618;5.130;2023-04-24T07:40:56;12.10;99.90
48728;DHT22;34527;45.618;5.130;2023-04-24T07:43:22;12.20;99.90
48728;DHT22;34527;45.618;5.130;2023-04-24T07:45:52;12.20;99.90
48728;DHT22;34527;45.618;5.130;2023-04-24T07:48:17;12.20;99.90
48728;DHT22;34527;45.618;5.130;2023-04-24T07:50:44;12.30;99.90
48728;DHT22;34527;45.618;5.130;2023-04-24T07:53:09;12.40;99.90
48728;DHT22;34527;45.618;5.130;2023-04-24T07:55:35;12.40;99.90
48728;DHT22;34527;45.618;5.130;2023-04-24T07:58:01;12.40;99.90
48728;DHT22;34527;45.618;5.130;2023-04-24T08:00:26;12.40;99.90
48728;DHT22;34527;45.618;5.130;2023-04-24T08:02:52;12.50;99.90
48728;DHT22;34527;45.618;5.130;2023-04-24T08:05:18;12.80;99.90
48728;DHT22;34527;45.618;5.130;2023-04-24T08:07:43;12.90;99.90
48728;DHT22;34527;45.618;5.130;2023-04-24T08:10:11;12.80;99.90
48728;DHT22;34527;45.618;5.130;2023-04-24T08:12:37;12.80;99.90
48728;DHT22;34527;45.618;5.130;2023-04-24T08:15:04;13.00;99.90
48728;DHT22;34527;45.618;5.130;2023-04-24T08:17:30;13.00;99.90
48728;DHT22;34527;45.618;5.130;2023-04-24T08:19:56;13.10;99.90
48728;DHT22;34527;45.618;5.130;2023-04-24T08:22:29;13.00;99.90
48728;DHT22;34527;45.618;5.130;2023-04-24T08:24:55;12.80;99.90
48728;DHT22;34527;45.618;5.130;2023-04-24T08:27:22;12.80;99.90
48728;DHT22;34527;45.618;5.130;2023-04-24T08:29:48;12.70;99.90
48728;DHT22;34527;45.618;5.130;2023-04-24T08:32:14;12.70;99.90
48728;DHT22;34527;45.618;5.130;2023-04-24T08:34:39;12.70;99.90
48728;DHT22;34527;45.618;5.130;2023-04-24T08:37:05;12.60;99.90
48728;DHT22;34527;45.618;5.130;2023-04-24T08:39:31;13.00;99.90
48728;DHT22;34527;45.618;5.130;2023-04-24T08:41:56;13.30;99.90
48728;DHT22;34527;45.618;5.130;2023-04-24T08:44:22;13.40;99.90
48728;DHT22;34527;45.618;5.130;2023-04-24T08:46:48;13.50;99.90
48728;DHT22;34527;45.618;5.130;2023-04-24T08:49:15;13.70;99.90
48728;DHT22;34527;45.618;5.130;2023-04-24T08:51:44;13.50;99.90
48728;DHT22;34527;45.618;5.130;2023-04-24T08:54:11;13.50;99.90
48728;DHT22;34527;45.618;5.130;2023-04-24T08:56:38;13.50;99.90
48728;DHT22;34527;45.618;5.130;2023-04-24T08:59:06;13.70;99.90
48728;DHT22;34527;45.618;5.130;2023-04-24T09:01:32;13.80;99.90
48728;DHT22;34527;45.618;5.130;2023-04-24T09:04:02;13.70;99.90
48728;DHT22;34527;45.618;5.130;2023-04-24T09:06:30;13.80;99.90
48728;DHT22;34527;45.618;5.130;2023-04-24T09:09:00;13.70;99.90
48728;DHT22;34527;45.618;5.130;2023-04-24T09:11:26;13.30;99.90
48728;DHT22;34527;45.618;5.130;2023-04-24T09:13:54;13.20;99.90
48728;DHT22;34527;45.618;5.130;2023-04-24T09:16:20;13.20;99.90
48728;DHT22;34527;45.618;5.130;2023-04-24T09:18:48;13.50;99.90
48728;DHT22;34527;45.618;5.130;2023-04-24T09:21:14;13.60;99.90
48728;DHT22;34527;45.618;5.130;2023-04-24T09:23:40;13.80;99.90
48728;DHT22;34527;45.618;5.130;2023-04-24T09:26:06;13.80;99.90
48728;DHT22;34527;45.618;5.130;2023-04-24T09:28:38;13.50;99.90
48728;DHT22;34527;45.618;5.130;2023-04-24T09:31:14;13.50;99.90
48728;DHT22;34527;45.618;5.130;2023-04-24T09:33:57;13.90;99.90
48728;DHT22;34527;45.618;5.130;2023-04-24T09:39:03;14.20;99.90
48728;DHT22;34527;45.618;5.130;2023-04-24T09:41:29;14.20;99.90
48728;DHT22;34527;45.618;5.130;2023-04-24T09:43:56;14.00;99.90
48728;DHT22;34527;45.618;5.130;2023-04-24T09:46:29;13.90;99.90
48728;DHT22;34527;45.618;5.130;2023-04-24T09:48:56;14.10;99.90
48728;DHT22;34527;45.618;5.130;2023-04-24T09:51:35;14.20;99.90
48728;DHT22;34527;45.618;5.130;2023-04-24T09:54:02;14.10;99.90
48728;DHT22;34527;45.618;5.130;2023-04-24T09:56:32;14.40;99.90
48728;DHT22;34527;45.618;5.130;2023-04-24T09:59:06;14.30;99.90
48728;DHT22;34527;45.618;5.130;2023-04-24T10:01:32;14.20;99.90
48728;DHT22;34527;45.618;5.130;2023-04-24T10:03:58;14.40;99.90
48728;DHT22;34527;45.618;5.130;2023-04-24T10:06:32;14.40;99.90
48728;DHT22;34527;45.618;5.130;2023-04-24T10:08:58;14.60;99.90
48728;DHT22;34527;45.618;5.130;2023-04-24T10:11:26;14.70;99.90
48728;DHT22;34527;45.618;5.130;2023-04-24T10:13:52;14.30;99.90
48728;DHT22;34527;45.618;5.130;2023-04-24T10:16:20;14.40;99.90
48728;DHT22;34527;45.618;5.130;2023-04-24T10:18:48;14.80;99.90
48728;DHT22;34527;45.618;5.130;2023-04-24T10:21:14;14.90;99.90
48728;DHT22;34527;45.618;5.130;2023-04-24T10:23:41;15.00;99.90
48728;DHT22;34527;45.618;5.130;2023-04-24T10:26:12;15.30;99.90
48728;DHT22;34527;45.618;5.130;2023-04-24T10:28:46;15.30;99.90
48728;DHT22;34527;45.618;5.130;2023-04-24T10:31:13;14.80;99.90
48728;DHT22;34527;45.618;5.130;2023-04-24T10:33:40;14.80;99.90
48728;DHT22;34527;45.618;5.130;2023-04-24T10:36:09;15.10;99.90
48728;DHT22;34527;45.618;5.130;2023-04-24T10:38:37;15.00;99.90
48728;DHT22;34527;45.618;5.130;2023-04-24T10:41:10;15.10;99.90
48728;DHT22;34527;45.618;5.130;2023-04-24T10:43:41;14.90;99.90
48728;DHT22;34527;45.618;5.130;2023-04-24T10:46:08;14.80;99.90
48728;DHT22;34527;45.618;5.130;2023-04-24T10:48:36;15.10;99.90
48728;DHT22;34527;45.618;5.130;2023-04-24T10:51:11;14.40;99.90
48728;DHT22;34527;45.618;5.130;2023-04-24T10:53:37;14.30;99.90
48728;DHT22;34527;45.618;5.130;2023-04-24T10:56:07;14.30;99.90
48728;DHT22;34527;45.618;5.130;2023-04-24T10:58:41;14.50;99.90
48728;DHT22;34527;45.618;5.130;2023-04-24T11:01:26;14.70;99.90
48728;DHT22;34527;45.618;5.130;2023-04-24T11:03:57;14.70;99.90
48728;DHT22;34527;45.618;5.130;2023-04-24T11:06:30;14.70;99.90
48728;DHT22;34527;45.618;5.130;2023-04-24T11:09:08;14.80;99.90
48728;DHT22;34527;45.618;5.130;2023-04-24T11:11:35;14.80;99.90
48728;DHT22;34527;45.618;5.130;2023-04-24T11:14:04;15.20;99.90
48728;DHT22;34527;45.618;5.130;2023-04-24T11:16:51;15.30;99.90
48728;DHT22;34527;45.618;5.130;2023-04-24T11:19:25;15.00;99.90
48728;DHT22;34527;45.618;5.130;2023-04-24T11:27:15;15.60;99.90
48728;DHT22;34527;45.618;5.130;2023-04-24T11:35:01;15.90;99.90
48728;DHT22;34527;45.618;5.130;2023-04-24T11:37:35;16.10;99.90
48728;DHT22;34527;45.618;5.130;2023-04-24T11:40:02;16.10;99.90
48728;DHT22;34527;45.618;5.130;2023-04-24T11:42:40;16.00;99.90
48728;DHT22;34527;45.618;5.130;2023-04-24T11:45:16;15.80;99.90
48728;DHT22;34527;45.618;5.130;2023-04-24T11:47:43;16.00;99.90
48728;DHT22;34527;45.618;5.130;2023-04-24T11:50:13;15.90;99.90
48728;DHT22;34527;45.618;5.130;2023-04-24T11:52:40;15.80;99.90
48728;DHT22;34527;45.618;5.130;2023-04-24T11:55:27;15.90;99.90
48728;DHT22;34527;45.618;5.130;2023-04-24T11:57:55;15.60;99.90
48728;DHT22;34527;45.618;5.130;2023-04-24T12:00:32;15.60;99.90
48728;DHT22;34527;45.618;5.130;2023-04-24T12:03:10;15.90;99.90
48728;DHT22;34527;45.618;5.130;2023-04-24T12:05:37;15.80;99.90
48728;DHT22;34527;45.618;5.130;2023-04-24T12:08:03;15.60;99.90
48728;DHT22;34527;45.618;5.130;2023-04-24T12:10:30;15.60;99.90
48728;DHT22;34527;45.618;5.130;2023-04-24T12:12:57;16.10;99.90
48728;DHT22;34527;45.618;5.130;2023-04-24T12:15:24;16.40;99.90
48728;DHT22;34527;45.618;5.130;2023-04-24T12:17:53;16.60;99.90
48728;DHT22;34527;45.618;5.130;2023-04-24T12:20:26;16.80;99.90
48728;DHT22;34527;45.618;5.130;2023-04-24T12:22:56;17.20;99.90
48728;DHT22;34527;45.618;5.130;2023-04-24T12:25:24;17.30;99.90
48728;DHT22;34527;45.618;5.130;2023-04-24T12:27:54;17.20;99.90
48728;DHT22;34527;45.618;5.130;2023-04-24T12:30:21;17.30;99.90
48728;DHT22;34527;45.618;5.130;2023-04-24T12:32:51;17.50;99.90
48728;DHT22;34527;45.618;5.130;2023-04-24T12:35:22;17.30;99.90
48728;DHT22;34527;45.618;5.130;2023-04-24T12:37:48;16.90;99.90
48728;DHT22;34527;45.618;5.130;2023-04-24T12:40:14;16.70;99.90
48728;DHT22;34527;45.618;5.130;2023-04-24T12:42:58;16.60;99.90
48728;DHT22;34527;45.618;5.130;2023-04-24T12:45:24;16.30;99.90
48728;DHT22;34527;45.618;5.130;2023-04-24T12:47:50;16.00;99.90
48728;DHT22;34527;45.618;5.130;2023-04-24T12:50:16;15.60;99.90
48728;DHT22;34527;45.618;5.130;2023-04-24T12:52:43;15.60;99.90
48728;DHT22;34527;45.618;5.130;2023-04-24T12:55:09;15.60;99.90
48728;DHT22;34527;45.618;5.130;2023-04-24T12:57:36;15.50;99.90
48728;DHT22;34527;45.618;5.130;2023-04-24T13:00:04;15.70;99.90
48728;DHT22;34527;45.618;5.130;2023-04-24T13:02:30;15.80;99.90
48728;DHT22;34527;45.618;5.130;2023-04-24T13:04:57;16.20;99.90
48728;DHT22;34527;45.618;5.130;2023-04-24T13:07:24;16.60;99.90
48728;DHT22;34527;45.618;5.130;2023-04-24T13:09:50;16.70;99.90
48728;DHT22;34527;45.618;5.130;2023-04-24T13:12:17;16.90;99.90
48728;DHT22;34527;45.618;5.130;2023-04-24T13:14:42;16.80;99.90
48728;DHT22;34527;45.618;5.130;2023-04-24T13:17:08;16.70;99.90
48728;DHT22;34527;45.618;5.130;2023-04-24T13:19:38;16.70;99.90
48728;DHT22;34527;45.618;5.130;2023-04-24T13:22:05;17.10;99.90
48728;DHT22;34527;45.618;5.130;2023-04-24T13:24:31;16.40;99.90
48728;DHT22;34527;45.618;5.130;2023-04-24T13:26:57;16.00;99.90
48728;DHT22;34527;45.618;5.130;2023-04-24T13:29:23;16.00;99.90
48728;DHT22;34527;45.618;5.130;2023-04-24T13:31:50;16.10;99.90
48728;DHT22;34527;45.618;5.130;2023-04-24T13:34:17;16.30;99.90
48728;DHT22;34527;45.618;5.130;2023-04-24T13:36:43;16.40;99.90
48728;DHT22;34527;45.618;5.130;2023-04-24T13:39:10;16.10;99.90
48728;DHT22;34527;45.618;5.130;2023-04-24T13:41:36;16.10;99.90
48728;DHT22;34527;45.618;5.130;2023-04-24T13:44:02;16.00;99.90
48728;DHT22;34527;45.618;5.130;2023-04-24T13:46:28;15.90;99.90
48728;DHT22;34527;45.618;5.130;2023-04-24T13:48:54;16.10;99.90
48728;DHT22;34527;45.618;5.130;2023-04-24T13:51:19;16.10;99.90
48728;DHT22;34527;45.618;5.130;2023-04-24T13:53:45;15.90;99.90
48728;DHT22;34527;45.618;5.130;2023-04-24T13:56:11;16.20;99.90
48728;DHT22;34527;45.618;5.130;2023-04-24T13:58:38;16.50;99.90
48728;DHT22;34527;45.618;5.130;2023-04-24T14:01:04;16.50;99.90
48728;DHT22;34527;45.618;5.130;2023-04-24T14:03:29;16.40;99.90
48728;DHT22;34527;45.618;5.130;2023-04-24T14:05:55;16.50;99.90
48728;DHT22;34527;45.618;5.130;2023-04-24T14:08:21;16.50;99.90
48728;DHT22;34527;45.618;5.130;2023-04-24T14:10:46;16.50;99.90
48728;DHT22;34527;45.618;5.130;2023-04-24T14:13:12;16.40;99.90
48728;DHT22;34527;45.618;5.130;2023-04-24T14:15:38;16.10;99.90
48728;DHT22;34527;45.618;5.130;2023-04-24T14:18:04;16.20;99.90
48728;DHT22;34527;45.618;5.130;2023-04-24T14:20:29;16.20;99.90
48728;DHT22;34527;45.618;5.130;2023-04-24T14:22:56;16.60;99.90
48728;DHT22;34527;45.618;5.130;2023-04-24T14:25:24;16.70;99.90
48728;DHT22;34527;45.618;5.130;2023-04-24T14:27:50;16.50;99.90
48728;DHT22;34527;45.618;5.130;2023-04-24T14:30:16;16.20;99.90
48728;DHT22;34527;45.618;5.130;2023-04-24T14:32:41;16.30;99.90
48728;DHT22;34527;45.618;5.130;2023-04-24T14:35:07;16.20;99.90
48728;DHT22;34527;45.618;5.130;2023-04-24T14:37:33;16.10;99.90
48728;DHT22;34527;45.618;5.130;2023-04-24T14:39:59;16.00;99.90
48728;DHT22;34527;45.618;5.130;2023-04-24T14:42:24;16.00;99.90
48728;DHT22;34527;45.618;5.130;2023-04-24T14:44:50;16.10;99.90
48728;DHT22;34527;45.618;5.130;2023-04-24T14:47:16;16.10;99.90
48728;DHT22;34527;45.618;5.130;2023-04-24T14:49:47;16.20;99.90
48728;DHT22;34527;45.618;5.130;2023-04-24T14:52:13;16.20;99.90
48728;DHT22;34527;45.618;5.130;2023-04-24T14:54:38;16.20;99.90
48728;DHT22;34527;45.618;5.130;2023-04-24T14:57:04;16.30;99.90
48728;DHT22;34527;45.618;5.130;2023-04-24T14:59:30;16.30;99.90
48728;DHT22;34527;45.618;5.130;2023-04-24T15:01:57;16.20;99.90
48728;DHT22;34527;45.618;5.130;2023-04-24T15:04:27;16.20;99.90
48728;DHT22;34527;45.618;5.130;2023-04-24T15:06:53;16.30;99.90
48728;DHT22;34527;45.618;5.130;2023-04-24T15:09:20;16.10;99.90
48728;DHT22;34527;45.618;5.130;2023-04-24T15:11:46;16.10;99.90
48728;DHT22;34527;45.618;5.130;2023-04-24T15:14:11;16.10;99.90
48728;DHT22;34527;45.618;5.130;2023-04-24T15:16:37;16.00;99.90
48728;DHT22;34527;45.618;5.130;2023-04-24T15:19:03;15.80;99.90
48728;DHT22;34527;45.618;5.130;2023-04-24T15:21:28;15.80;99.90
48728;DHT22;34527;45.618;5.130;2023-04-24T15:23:54;16.00;99.90
48728;DHT22;34527;45.618;5.130;2023-04-24T15:26:20;16.00;99.90
48728;DHT22;34527;45.618;5.130;2023-04-24T15:28:46;16.00;99.90
48728;DHT22;34527;45.618;5.130;2023-04-24T15:31:12;16.00;99.90
48728;DHT22;34527;45.618;5.130;2023-04-24T15:33:38;16.00;99.90
48728;DHT22;34527;45.618;5.130;2023-04-24T15:36:04;16.00;99.90
48728;DHT22;34527;45.618;5.130;2023-04-24T15:38:30;15.80;99.90
48728;DHT22;34527;45.618;5.130;2023-04-24T15:40:56;15.80;99.90